createdAt,value
2022-08-22T00:00:42.812Z,42.92
2022-08-22T00:02:48.332Z,41.14
2022-08-22T00:03:15.976Z,42.70
2022-08-22T00:03:42.018Z,43.02
2022-08-22T00:06:39.287Z,43.06
2022-08-22T00:09:33.572Z,42.74
2022-08-22T00:12:27.372Z,43.18
2022-08-22T00:15:43.511Z,43.21
2022-08-22T00:18:32.771Z,43.32
2022-08-22T00:21:24.601Z,43.45
2022-08-22T00:24:21.519Z,43.18
2022-08-22T00:27:14.307Z,43.40
2022-08-22T00:30:08.362Z,43.67
2022-08-22T00:33:01.322Z,43.44
2022-08-22T00:35:52.040Z,43.42
2022-08-22T00:38:44.602Z,43.43
2022-08-22T00:41:46.758Z,43.46
2022-08-22T00:45:10.939Z,43.17
2022-08-22T00:48:14.632Z,42.87
2022-08-22T00:51:33.685Z,43.19
2022-08-22T00:54:30.952Z,43.08
2022-08-22T00:57:33.402Z,43.28
2022-08-22T01:00:24.307Z,43.37
2022-08-22T01:03:47.773Z,43.23
2022-08-22T01:06:45.212Z,42.88
2022-08-22T01:09:43.273Z,42.79
2022-08-22T01:12:43.652Z,42.82
2022-08-22T01:15:34.895Z,43.02
2022-08-22T01:18:33.218Z,43.19
2022-08-22T01:21:53.996Z,43.00
2022-08-22T01:25:22.575Z,42.68
2022-08-22T01:28:47.108Z,43.05
2022-08-22T01:32:09.528Z,43.09
2022-08-22T01:35:27.804Z,43.05
2022-08-22T01:38:27.675Z,43.20
2022-08-22T01:41:29.838Z,43.36
2022-08-22T01:44:32.544Z,43.28
2022-08-22T01:47:24.293Z,43.27
2022-08-22T01:50:18.762Z,43.37
2022-08-22T01:53:12.595Z,43.30
2022-08-22T01:56:08.588Z,43.72
2022-08-22T01:59:01.722Z,43.56
2022-08-22T02:01:58.195Z,43.56
2022-08-22T02:04:52.669Z,43.66
2022-08-22T02:07:49.314Z,43.81
2022-08-22T02:11:03.820Z,43.70
2022-08-22T02:13:56.616Z,43.88
2022-08-22T02:16:46.820Z,43.94
2022-08-22T02:19:41.324Z,43.77
2022-08-22T02:22:44.682Z,43.63
2022-08-22T02:25:37.000Z,43.83
2022-08-22T02:28:34.449Z,43.96
2022-08-22T02:31:27.398Z,44.19
2022-08-22T02:34:24.857Z,44.14
2022-08-22T02:37:17.629Z,43.97
2022-08-22T02:40:12.110Z,44.20
2022-08-22T02:43:05.168Z,44.04
2022-08-22T02:45:57.814Z,44.19
2022-08-22T02:48:52.198Z,44.34
2022-08-22T02:51:50.474Z,44.16
2022-08-22T02:54:47.349Z,44.24
2022-08-22T02:57:40.282Z,44.16
2022-08-22T03:00:33.314Z,44.36
2022-08-22T03:03:26.575Z,43.75
2022-08-22T03:06:38.829Z,43.76
2022-08-22T03:09:32.440Z,43.66
2022-08-22T03:12:26.441Z,43.40
2022-08-22T03:15:20.503Z,43.11
2022-08-22T03:18:20.325Z,43.45
2022-08-22T03:21:19.233Z,43.07
2022-08-22T03:24:14.084Z,42.67
2022-08-22T03:27:05.980Z,42.33
2022-08-22T03:29:58.289Z,42.34
2022-08-22T03:32:54.507Z,42.22
2022-08-22T03:35:56.714Z,42.38
2022-08-22T03:38:53.977Z,42.39
2022-08-22T03:41:55.172Z,42.15
2022-08-22T03:45:20.398Z,42.14
2022-08-22T03:48:59.129Z,42.16
2022-08-22T03:52:00.171Z,42.34
2022-08-22T03:55:14.223Z,42.32
2022-08-22T03:58:32.951Z,42.54
2022-08-22T04:01:34.811Z,42.33
2022-08-22T04:04:44.061Z,42.68
2022-08-22T04:08:05.240Z,42.78
2022-08-22T04:11:21.373Z,42.37
2022-08-22T04:14:41.330Z,42.41
2022-08-22T04:17:40.958Z,42.30
2022-08-22T04:20:50.839Z,42.45
2022-08-22T04:24:09.659Z,43.06
2022-08-22T04:27:02.535Z,43.77
2022-08-22T04:29:54.677Z,44.00
2022-08-22T04:32:46.646Z,44.13
2022-08-22T04:35:38.851Z,44.38
2022-08-22T04:38:30.533Z,44.47
2022-08-22T04:41:24.415Z,44.53
2022-08-22T04:44:17.553Z,44.47
2022-08-22T04:47:10.188Z,44.62
2022-08-22T04:50:04.398Z,44.78
2022-08-22T04:53:07.009Z,44.35
2022-08-22T04:56:07.240Z,44.28
2022-08-22T04:58:59.233Z,44.66
2022-08-22T05:01:55.329Z,44.53
2022-08-22T05:04:46.981Z,44.39
2022-08-22T05:07:41.659Z,44.02
2022-08-22T05:10:35.608Z,43.67
2022-08-22T05:13:29.068Z,43.33
2022-08-22T05:16:20.504Z,43.35
2022-08-22T05:19:16.794Z,43.23
2022-08-22T05:22:06.319Z,43.59
2022-08-22T05:24:57.476Z,44.11
2022-08-22T05:27:48.423Z,44.17
2022-08-22T05:30:37.253Z,44.32
2022-08-22T05:33:28.058Z,44.35
2022-08-22T05:36:22.232Z,44.18
2022-08-22T05:39:13.375Z,44.26
2022-08-22T05:42:03.733Z,44.33
2022-08-22T05:44:52.399Z,43.97
2022-08-22T05:47:44.570Z,44.46
2022-08-22T05:50:37.903Z,44.08
2022-08-22T05:53:39.615Z,44.39
2022-08-22T05:56:34.734Z,44.44
2022-08-22T05:59:25.754Z,44.35
2022-08-22T06:02:18.811Z,44.38
2022-08-22T06:05:11.858Z,44.41
2022-08-22T06:08:04.841Z,44.23
2022-08-22T06:10:56.582Z,44.18
2022-08-22T06:13:48.757Z,44.25
2022-08-22T06:16:47.663Z,44.34
2022-08-22T06:19:38.819Z,44.35
2022-08-22T06:22:29.157Z,44.25
2022-08-22T06:25:20.529Z,44.60
2022-08-22T06:28:13.499Z,44.31
2022-08-22T06:31:03.500Z,44.33
2022-08-22T06:33:57.985Z,44.17
2022-08-22T06:36:49.567Z,44.19
2022-08-22T06:39:40.223Z,44.44
2022-08-22T06:42:31.076Z,44.35
2022-08-22T06:45:23.607Z,44.20
2022-08-22T06:48:17.661Z,44.20
2022-08-22T06:51:09.301Z,43.93
2022-08-22T06:54:01.324Z,44.20
2022-08-22T06:56:50.865Z,43.89
2022-08-22T06:59:40.327Z,43.93
2022-08-22T07:02:36.691Z,43.66
2022-08-22T07:05:28.771Z,43.61
2022-08-22T07:08:21.243Z,43.67
2022-08-22T07:11:13.026Z,43.64
2022-08-22T07:14:05.190Z,43.46
2022-08-22T07:16:57.702Z,43.37
2022-08-22T07:19:50.276Z,43.83
2022-08-22T07:22:39.279Z,43.78
2022-08-22T07:25:28.379Z,43.93
2022-08-22T07:28:36.487Z,43.72
2022-08-22T07:31:37.163Z,43.60
2022-08-22T07:34:37.593Z,43.53
2022-08-22T07:37:33.337Z,43.79
2022-08-22T07:40:27.325Z,43.43
2022-08-22T07:43:23.592Z,43.57
2022-08-22T07:46:23.097Z,43.59
2022-08-22T07:49:16.629Z,43.58
2022-08-22T07:52:08.079Z,43.64
2022-08-22T07:55:05.655Z,43.72
2022-08-22T07:57:57.022Z,43.38
2022-08-22T08:00:47.424Z,43.36
2022-08-22T08:03:36.176Z,43.66
2022-08-22T08:06:25.581Z,43.17
2022-08-22T08:09:15.574Z,43.37
2022-08-22T08:12:06.831Z,43.47
2022-08-22T08:14:56.699Z,43.75
2022-08-22T08:17:46.256Z,43.67
2022-08-22T08:20:36.347Z,43.45
2022-08-22T08:23:26.609Z,43.34
2022-08-22T08:26:18.269Z,43.63
2022-08-22T08:29:07.495Z,43.43
2022-08-22T08:31:56.659Z,43.65
2022-08-22T08:34:45.979Z,43.55
2022-08-22T08:37:42.137Z,44.05
2022-08-22T08:40:48.528Z,43.89
2022-08-22T08:43:42.414Z,43.89
2022-08-22T08:47:01.671Z,43.63
2022-08-22T08:50:01.371Z,44.09
2022-08-22T08:53:11.967Z,43.68
2022-08-22T08:56:06.073Z,43.32
2022-08-22T08:59:00.310Z,43.60
2022-08-22T09:02:13.787Z,43.54
2022-08-22T09:05:35.909Z,43.67
2022-08-22T09:08:47.689Z,43.73
2022-08-22T09:12:06.726Z,43.49
2022-08-22T09:15:18.232Z,43.24
2022-08-22T09:18:34.585Z,43.85
2022-08-22T09:21:53.854Z,43.80
2022-08-22T09:25:06.053Z,43.68
2022-08-22T09:28:02.500Z,43.03
2022-08-22T09:31:17.023Z,41.86
2022-08-22T09:34:28.117Z,41.73
2022-08-22T09:37:21.147Z,41.98
2022-08-22T09:40:17.911Z,41.74
2022-08-22T09:43:10.881Z,41.76
2022-08-22T09:46:09.225Z,41.61
2022-08-22T09:49:06.678Z,41.85
2022-08-22T09:52:05.412Z,41.61
2022-08-22T09:55:07.953Z,41.62
2022-08-22T09:58:01.530Z,41.43
2022-08-22T10:00:55.372Z,41.31
2022-08-22T10:04:19.506Z,41.77
2022-08-22T10:07:25.091Z,41.79
2022-08-22T10:10:26.199Z,41.36
2022-08-22T10:13:23.758Z,41.59
2022-08-22T10:16:21.982Z,41.49
2022-08-22T10:19:18.551Z,41.80
2022-08-22T10:22:29.883Z,41.79
2022-08-22T10:25:28.518Z,41.97
2022-08-22T10:28:21.983Z,40.97
2022-08-22T10:31:22.361Z,40.77
2022-08-22T10:34:13.539Z,41.04
2022-08-22T10:37:10.246Z,40.94
2022-08-22T10:40:05.716Z,41.04
2022-08-22T10:42:59.565Z,40.90
2022-08-22T10:45:49.645Z,41.14
2022-08-22T10:48:46.883Z,40.96
2022-08-22T10:51:44.633Z,41.37
2022-08-22T10:54:43.883Z,41.49
2022-08-22T10:57:53.008Z,41.32
2022-08-22T11:00:49.771Z,41.25
2022-08-22T11:03:42.429Z,41.83
2022-08-22T11:06:34.707Z,41.28
2022-08-22T11:09:28.109Z,41.49
2022-08-22T11:12:23.460Z,41.20
2022-08-22T11:15:26.242Z,40.58
2022-08-22T11:18:34.646Z,41.15
2022-08-22T11:21:29.124Z,40.60
2022-08-22T11:25:00.228Z,40.53
2022-08-22T11:28:04.779Z,40.66
2022-08-22T11:31:07.210Z,40.80
2022-08-22T11:34:01.174Z,40.29
2022-08-22T11:36:54.456Z,40.06
2022-08-22T11:39:47.302Z,40.23
2022-08-22T11:42:47.771Z,40.49
2022-08-22T11:45:40.828Z,39.90
2022-08-22T11:48:39.949Z,40.74
2022-08-22T11:51:43.992Z,40.04
2022-08-22T11:54:42.121Z,40.51
2022-08-22T11:57:34.611Z,40.80
2022-08-22T12:00:36.321Z,40.98
2022-08-22T12:03:39.172Z,40.52
2022-08-22T12:06:40.643Z,40.72
2022-08-22T12:09:42.883Z,40.61
2022-08-22T12:12:42.150Z,40.96
2022-08-22T12:15:36.822Z,40.46
2022-08-22T12:18:41.832Z,40.22
2022-08-22T12:21:55.757Z,40.33
2022-08-22T12:24:54.081Z,40.79
2022-08-22T12:27:55.295Z,40.44
2022-08-22T12:30:53.569Z,40.31
2022-08-22T12:34:13.910Z,40.75
2022-08-22T12:37:11.956Z,40.75
2022-08-22T12:40:26.450Z,40.54
2022-08-22T12:43:44.958Z,40.10
2022-08-22T12:46:46.750Z,39.99
2022-08-22T12:49:52.295Z,40.38
2022-08-22T12:53:00.553Z,40.29
2022-08-22T12:56:04.929Z,40.59
2022-08-22T12:59:17.798Z,40.66
2022-08-22T13:02:15.480Z,40.07
2022-08-22T13:05:19.928Z,40.13
2022-08-22T13:08:11.317Z,40.53
2022-08-22T13:11:02.552Z,40.39
2022-08-22T13:13:56.821Z,40.09
2022-08-22T13:16:48.977Z,40.29
2022-08-22T13:19:51.393Z,40.02
2022-08-22T13:22:45.306Z,40.18
2022-08-22T13:25:57.072Z,39.76
2022-08-22T13:28:47.784Z,40.08
2022-08-22T13:31:37.764Z,40.21
2022-08-22T13:34:39.700Z,40.18
2022-08-22T13:37:32.195Z,40.00
2022-08-22T13:40:26.915Z,40.23
2022-08-22T13:43:22.845Z,39.94
2022-08-22T13:46:11.586Z,39.86
2022-08-22T13:49:02.959Z,40.08
2022-08-22T13:51:53.940Z,39.62
2022-08-22T13:54:52.854Z,39.96
2022-08-22T13:57:45.458Z,39.65
2022-08-22T14:01:16.451Z,39.77
2022-08-22T14:04:28.329Z,39.65
2022-08-22T14:07:25.951Z,39.00
2022-08-22T14:10:21.818Z,38.90
2022-08-22T14:13:39.801Z,38.72
2022-08-22T14:16:31.038Z,39.16
2022-08-22T14:19:27.129Z,39.33
2022-08-22T14:22:18.187Z,39.31
2022-08-22T14:25:13.204Z,39.58
2022-08-22T14:28:06.536Z,39.69
2022-08-22T14:31:01.278Z,39.47
2022-08-22T14:33:54.795Z,39.33
2022-08-22T14:36:47.641Z,38.67
2022-08-22T14:39:42.910Z,38.60
2022-08-22T14:42:44.372Z,38.71
2022-08-22T14:45:36.852Z,39.14
2022-08-22T14:48:32.591Z,39.05
2022-08-22T14:51:25.091Z,39.60
2022-08-22T14:54:21.230Z,39.99
2022-08-22T14:57:19.905Z,39.27
2022-08-22T15:00:12.311Z,39.44
2022-08-22T15:03:18.019Z,39.16
2022-08-22T15:06:11.580Z,38.99
2022-08-22T15:09:01.072Z,39.22
2022-08-22T15:11:56.729Z,39.09
2022-08-22T15:14:52.162Z,38.99
2022-08-22T15:17:44.758Z,39.11
2022-08-22T15:20:36.565Z,38.89
2022-08-22T15:23:45.075Z,39.10
2022-08-22T15:26:37.987Z,38.86
2022-08-22T15:29:29.292Z,39.24
2022-08-22T15:32:22.920Z,39.54
2022-08-22T15:35:17.754Z,39.77
2022-08-22T15:38:09.156Z,39.44
2022-08-22T15:41:31.280Z,39.46
2022-08-22T15:44:32.918Z,39.79
2022-08-22T15:47:32.822Z,40.04
2022-08-22T15:50:32.715Z,39.68
2022-08-22T15:53:24.008Z,39.82
2022-08-22T15:56:25.005Z,39.82
2022-08-22T15:59:23.697Z,39.43
2022-08-22T16:02:29.949Z,39.43
2022-08-22T16:05:26.198Z,40.03
2022-08-22T16:08:16.594Z,39.74
2022-08-22T16:11:32.789Z,40.22
2022-08-22T16:14:26.298Z,39.46
2022-08-22T16:17:46.319Z,39.19
2022-08-22T16:20:55.058Z,39.58
2022-08-22T16:24:21.605Z,39.79
2022-08-22T16:27:20.097Z,39.98
2022-08-22T16:30:16.366Z,39.62
2022-08-22T16:33:07.054Z,39.77
2022-08-22T16:36:41.499Z,39.64
2022-08-22T16:39:39.103Z,39.92
2022-08-22T16:42:36.937Z,39.96
2022-08-22T16:45:35.873Z,40.29
2022-08-22T16:48:34.623Z,40.28
2022-08-22T16:51:23.221Z,39.71
2022-08-22T16:54:14.115Z,40.08
2022-08-22T16:57:09.809Z,40.49
2022-08-22T17:00:09.605Z,40.60
2022-08-22T17:03:09.029Z,40.42
2022-08-22T17:06:06.173Z,40.58
2022-08-22T17:09:01.930Z,40.52
2022-08-22T17:11:55.131Z,40.70
2022-08-22T17:14:52.656Z,40.76
2022-08-22T17:17:53.792Z,40.83
2022-08-22T17:20:47.835Z,41.20
2022-08-22T17:23:42.915Z,41.44
2022-08-22T17:26:42.211Z,41.19
2022-08-22T17:29:40.163Z,41.35
2022-08-22T17:32:35.837Z,41.50
2022-08-22T17:35:36.096Z,41.40
2022-08-22T17:38:36.455Z,41.35
2022-08-22T17:41:31.204Z,41.17
2022-08-22T17:44:25.592Z,41.27
2022-08-22T17:47:16.952Z,41.47
2022-08-22T17:50:10.763Z,41.52
2022-08-22T17:53:02.651Z,41.21
2022-08-22T17:56:00.307Z,41.21
2022-08-22T17:58:59.916Z,41.28
2022-08-22T18:01:52.576Z,40.84
2022-08-22T18:04:47.355Z,41.41
2022-08-22T18:07:53.946Z,41.64
2022-08-22T18:10:47.193Z,41.44
2022-08-22T18:13:41.555Z,41.26
2022-08-22T18:16:33.317Z,40.72
2022-08-22T18:19:38.403Z,40.77
2022-08-22T18:22:31.604Z,40.87
2022-08-22T18:25:36.168Z,40.76
2022-08-22T18:28:28.733Z,40.93
2022-08-22T18:31:29.452Z,41.31
2022-08-22T18:34:24.945Z,41.50
2022-08-22T18:37:18.651Z,41.19
2022-08-22T18:40:13.466Z,41.20
2022-08-22T18:43:12.909Z,41.44
2022-08-22T18:46:04.378Z,41.55
2022-08-22T18:49:14.633Z,41.35
2022-08-22T18:52:17.483Z,41.37
2022-08-22T18:55:24.451Z,41.12
2022-08-22T18:58:27.648Z,41.09
2022-08-22T19:01:44.224Z,41.16
2022-08-22T19:05:04.324Z,41.49
2022-08-22T19:08:03.795Z,41.88
2022-08-22T19:10:57.366Z,41.99
2022-08-22T19:14:01.446Z,42.07
2022-08-22T19:17:16.198Z,43.47
2022-08-22T19:20:28.139Z,42.64
2022-08-22T19:23:46.286Z,41.95
2022-08-22T19:26:40.745Z,41.87
2022-08-22T19:29:55.808Z,41.77
2022-08-22T19:33:03.104Z,42.12
2022-08-22T19:36:14.325Z,41.60
2022-08-22T19:39:08.865Z,41.42
2022-08-22T19:41:58.505Z,41.63
2022-08-22T19:44:48.780Z,41.66
2022-08-22T19:47:39.280Z,41.70
2022-08-22T19:50:34.743Z,42.16
2022-08-22T19:53:36.326Z,42.05
2022-08-22T19:56:39.018Z,41.90
2022-08-22T19:59:44.417Z,41.87
2022-08-22T20:02:52.592Z,42.09
2022-08-22T20:05:56.953Z,41.96
2022-08-22T20:08:58.605Z,42.52
2022-08-22T20:11:53.889Z,42.16
2022-08-22T20:14:48.186Z,41.96
2022-08-22T20:17:43.741Z,41.89
2022-08-22T20:20:38.064Z,41.79
2022-08-22T20:23:29.127Z,41.92
2022-08-22T20:26:19.182Z,41.94
2022-08-22T20:29:08.355Z,42.43
2022-08-22T20:31:58.982Z,41.81
2022-08-22T20:34:48.355Z,41.84
2022-08-22T20:38:05.175Z,41.13
2022-08-22T20:40:54.746Z,40.54
2022-08-22T20:43:52.398Z,40.66
2022-08-22T20:46:57.571Z,41.56
2022-08-22T20:49:48.386Z,41.56
2022-08-22T20:52:38.335Z,40.99
2022-08-22T20:55:31.495Z,40.69
2022-08-22T20:58:24.340Z,40.28
2022-08-22T21:01:15.750Z,40.12
2022-08-22T21:04:05.600Z,41.12
2022-08-22T21:07:00.827Z,42.15
2022-08-22T21:10:15.897Z,42.87
2022-08-22T21:13:10.481Z,42.04
2022-08-22T21:16:02.480Z,41.56
2022-08-22T21:18:54.023Z,41.73
2022-08-22T21:21:42.552Z,41.55
2022-08-22T21:24:31.782Z,41.69
2022-08-22T21:27:24.267Z,41.18
2022-08-22T21:30:13.690Z,42.07
2022-08-22T21:33:02.186Z,42.25
2022-08-22T21:35:57.907Z,42.31
2022-08-22T21:38:54.883Z,42.76
2022-08-22T21:41:45.512Z,43.14
2022-08-22T21:44:38.466Z,42.74
2022-08-22T21:47:31.580Z,43.05
2022-08-22T21:50:38.319Z,43.16
2022-08-22T21:53:29.607Z,43.29
2022-08-22T21:56:29.548Z,43.73
2022-08-22T21:59:25.010Z,43.70
2022-08-22T22:02:36.904Z,44.18
2022-08-22T22:05:25.898Z,44.25
2022-08-22T22:08:14.644Z,44.41
2022-08-22T22:11:08.700Z,44.79
2022-08-22T22:13:57.281Z,44.92
2022-08-22T22:16:48.439Z,45.43
2022-08-22T22:19:37.398Z,45.02
2022-08-22T22:22:25.996Z,45.02
2022-08-22T22:25:41.225Z,45.42
2022-08-22T22:28:27.753Z,45.95
2022-08-22T22:31:18.273Z,45.71
2022-08-22T22:34:06.820Z,45.62
2022-08-22T22:36:55.713Z,46.18
2022-08-22T22:39:44.301Z,46.46
2022-08-22T22:42:33.045Z,46.73
2022-08-22T22:45:22.893Z,46.67
2022-08-22T22:48:11.503Z,46.73
2022-08-22T22:51:09.578Z,46.49
2022-08-22T22:53:58.546Z,46.44
2022-08-22T22:56:47.998Z,46.56
2022-08-22T22:59:36.749Z,46.99
2022-08-22T23:02:28.379Z,46.77
2022-08-22T23:05:16.985Z,46.76
2022-08-22T23:08:05.882Z,46.69
2022-08-22T23:10:54.410Z,47.28
2022-08-22T23:13:45.429Z,47.64
2022-08-22T23:16:37.276Z,47.33
2022-08-22T23:22:03.027Z,47.13
2022-08-22T23:24:51.955Z,47.37
2022-08-22T23:27:40.512Z,47.57
2022-08-22T23:30:28.996Z,47.57
2022-08-22T23:33:17.513Z,47.92
2022-08-22T23:36:11.892Z,48.05
2022-08-22T23:39:01.906Z,48.18
2022-08-22T23:41:50.936Z,48.30
2022-08-22T23:44:41.675Z,48.18
2022-08-22T23:47:30.297Z,47.91
2022-08-22T23:50:18.873Z,47.86
2022-08-22T23:53:07.386Z,47.86
2022-08-22T23:55:57.491Z,47.89
2022-08-22T23:58:46.244Z,47.99
